sensor_id;sensor_type;location;lat;lon;timestamp;P1;durP1;ratioP1;P2;durP2;ratioP2
12687;SDS011;6408;59.388;17.798;2023-07-22T00:02:12;2.42;;;1.17;;
12687;SDS011;6408;59.388;17.798;2023-07-22T00:04:39;1.60;;;0.98;;
12687;SDS011;6408;59.388;17.798;2023-07-22T00:07:07;3.47;;;1.10;;
12687;SDS011;6408;59.388;17.798;2023-07-22T00:09:36;2.83;;;0.90;;
12687;SDS011;6408;59.388;17.798;2023-07-22T00:12:06;3.17;;;1.15;;
12687;SDS011;6408;59.388;17.798;2023-07-22T00:14:35;2.00;;;0.98;;
12687;SDS011;6408;59.388;17.798;2023-07-22T00:17:05;1.83;;;1.13;;
12687;SDS011;6408;59.388;17.798;2023-07-22T00:19:32;3.17;;;1.17;;
12687;SDS011;6408;59.388;17.798;2023-07-22T00:22:00;2.47;;;1.00;;
12687;SDS011;6408;59.388;17.798;2023-07-22T00:24:28;5.78;;;1.13;;
12687;SDS011;6408;59.388;17.798;2023-07-22T00:26:57;3.13;;;0.98;;
12687;SDS011;6408;59.388;17.798;2023-07-22T00:29:24;2.40;;;1.20;;
12687;SDS011;6408;59.388;17.798;2023-07-22T00:31:51;2.22;;;0.93;;
12687;SDS011;6408;59.388;17.798;2023-07-22T00:34:19;1.10;;;0.90;;
12687;SDS011;6408;59.388;17.798;2023-07-22T00:36:48;2.40;;;1.20;;
12687;SDS011;6408;59.388;17.798;2023-07-22T00:39:16;3.75;;;1.13;;
12687;SDS011;6408;59.388;17.798;2023-07-22T00:41:43;1.73;;;1.00;;
12687;SDS011;6408;59.388;17.798;2023-07-22T00:44:13;2.55;;;0.90;;
12687;SDS011;6408;59.388;17.798;2023-07-22T00:46:41;4.22;;;1.33;;
12687;SDS011;6408;59.388;17.798;2023-07-22T00:49:10;7.40;;;1.30;;
12687;SDS011;6408;59.388;17.798;2023-07-22T00:51:41;1.33;;;0.98;;
12687;SDS011;6408;59.388;17.798;2023-07-22T00:54:08;2.25;;;0.93;;
12687;SDS011;6408;59.388;17.798;2023-07-22T00:56:36;4.75;;;1.10;;
12687;SDS011;6408;59.388;17.798;2023-07-22T00:59:03;3.42;;;1.08;;
12687;SDS011;6408;59.388;17.798;2023-07-22T01:01:32;1.70;;;0.90;;
12687;SDS011;6408;59.388;17.798;2023-07-22T01:04:00;1.90;;;0.93;;
12687;SDS011;6408;59.388;17.798;2023-07-22T01:06:29;2.60;;;1.00;;
12687;SDS011;6408;59.388;17.798;2023-07-22T01:08:57;0.65;;;0.65;;
12687;SDS011;6408;59.388;17.798;2023-07-22T01:11:24;1.58;;;1.10;;
12687;SDS011;6408;59.388;17.798;2023-07-22T01:13:52;4.63;;;1.10;;
12687;SDS011;6408;59.388;17.798;2023-07-22T01:16:23;2.70;;;0.90;;
12687;SDS011;6408;59.388;17.798;2023-07-22T01:18:53;1.67;;;0.88;;
12687;SDS011;6408;59.388;17.798;2023-07-22T01:21:21;2.35;;;1.00;;
12687;SDS011;6408;59.388;17.798;2023-07-22T01:23:51;0.80;;;0.80;;
12687;SDS011;6408;59.388;17.798;2023-07-22T01:26:20;2.22;;;0.80;;
12687;SDS011;6408;59.388;17.798;2023-07-22T01:28:47;2.78;;;1.00;;
12687;SDS011;6408;59.388;17.798;2023-07-22T01:31:15;2.25;;;0.95;;
12687;SDS011;6408;59.388;17.798;2023-07-22T01:33:42;1.83;;;1.00;;
12687;SDS011;6408;59.388;17.798;2023-07-22T01:36:10;2.47;;;1.33;;
12687;SDS011;6408;59.388;17.798;2023-07-22T01:38:37;1.10;;;1.00;;
12687;SDS011;6408;59.388;17.798;2023-07-22T01:41:06;2.55;;;0.90;;
12687;SDS011;6408;59.388;17.798;2023-07-22T01:43:34;1.90;;;0.98;;
12687;SDS011;6408;59.388;17.798;2023-07-22T01:46:01;2.17;;;1.17;;
12687;SDS011;6408;59.388;17.798;2023-07-22T01:48:28;3.25;;;1.05;;
12687;SDS011;6408;59.388;17.798;2023-07-22T01:50:56;7.53;;;1.23;;
12687;SDS011;6408;59.388;17.798;2023-07-22T01:53:23;2.53;;;0.90;;
12687;SDS011;6408;59.388;17.798;2023-07-22T01:55:51;2.38;;;1.00;;
12687;SDS011;6408;59.388;17.798;2023-07-22T01:58:21;2.65;;;0.95;;
12687;SDS011;6408;59.388;17.798;2023-07-22T02:00:49;3.47;;;1.38;;
12687;SDS011;6408;59.388;17.798;2023-07-22T02:03:17;2.60;;;1.05;;
12687;SDS011;6408;59.388;17.798;2023-07-22T02:05:45;2.83;;;1.10;;
12687;SDS011;6408;59.388;17.798;2023-07-22T02:08:13;1.60;;;1.05;;
12687;SDS011;6408;59.388;17.798;2023-07-22T02:10:40;5.72;;;1.10;;
12687;SDS011;6408;59.388;17.798;2023-07-22T02:13:08;4.18;;;1.20;;
12687;SDS011;6408;59.388;17.798;2023-07-22T02:15:38;1.95;;;0.90;;
12687;SDS011;6408;59.388;17.798;2023-07-22T02:18:05;2.47;;;1.10;;
12687;SDS011;6408;59.388;17.798;2023-07-22T02:20:32;2.20;;;0.80;;
12687;SDS011;6408;59.388;17.798;2023-07-22T02:23:00;2.43;;;0.90;;
12687;SDS011;6408;59.388;17.798;2023-07-22T02:25:27;1.70;;;0.70;;
12687;SDS011;6408;59.388;17.798;2023-07-22T02:27:55;2.58;;;0.70;;
12687;SDS011;6408;59.388;17.798;2023-07-22T02:30:22;2.05;;;0.90;;
12687;SDS011;6408;59.388;17.798;2023-07-22T02:32:51;3.17;;;1.00;;
12687;SDS011;6408;59.388;17.798;2023-07-22T02:35:18;2.63;;;0.80;;
12687;SDS011;6408;59.388;17.798;2023-07-22T02:37:46;1.30;;;0.82;;
12687;SDS011;6408;59.388;17.798;2023-07-22T02:40:14;2.50;;;0.80;;
12687;SDS011;6408;59.388;17.798;2023-07-22T02:42:41;2.92;;;1.05;;
12687;SDS011;6408;59.388;17.798;2023-07-22T02:45:09;2.83;;;1.00;;
12687;SDS011;6408;59.388;17.798;2023-07-22T02:47:37;3.67;;;1.05;;
12687;SDS011;6408;59.388;17.798;2023-07-22T02:50:08;2.42;;;1.08;;
12687;SDS011;6408;59.388;17.798;2023-07-22T02:52:36;4.10;;;1.10;;
12687;SDS011;6408;59.388;17.798;2023-07-22T02:55:04;1.90;;;1.03;;
12687;SDS011;6408;59.388;17.798;2023-07-22T02:57:33;2.85;;;0.90;;
12687;SDS011;6408;59.388;17.798;2023-07-22T03:00:01;3.27;;;1.10;;
12687;SDS011;6408;59.388;17.798;2023-07-22T03:02:32;1.35;;;0.88;;
12687;SDS011;6408;59.388;17.798;2023-07-22T03:05:00;3.80;;;0.88;;
12687;SDS011;6408;59.388;17.798;2023-07-22T03:07:29;1.67;;;0.88;;
12687;SDS011;6408;59.388;17.798;2023-07-22T03:09:56;2.50;;;1.10;;
12687;SDS011;6408;59.388;17.798;2023-07-22T03:12:24;2.20;;;0.82;;
12687;SDS011;6408;59.388;17.798;2023-07-22T03:14:52;7.93;;;1.00;;
12687;SDS011;6408;59.388;17.798;2023-07-22T03:17:19;1.92;;;0.88;;
12687;SDS011;6408;59.388;17.798;2023-07-22T03:19:47;1.85;;;1.00;;
12687;SDS011;6408;59.388;17.798;2023-07-22T03:22:15;2.53;;;1.00;;
12687;SDS011;6408;59.388;17.798;2023-07-22T03:24:44;4.22;;;1.10;;
12687;SDS011;6408;59.388;17.798;2023-07-22T03:27:12;2.53;;;1.02;;
12687;SDS011;6408;59.388;17.798;2023-07-22T03:29:42;0.93;;;0.60;;
12687;SDS011;6408;59.388;17.798;2023-07-22T03:32:09;2.47;;;0.88;;
12687;SDS011;6408;59.388;17.798;2023-07-22T03:34:37;3.97;;;1.00;;
12687;SDS011;6408;59.388;17.798;2023-07-22T03:37:04;2.58;;;0.80;;
12687;SDS011;6408;59.388;17.798;2023-07-22T03:39:32;2.47;;;0.80;;
12687;SDS011;6408;59.388;17.798;2023-07-22T03:42:01;3.13;;;1.00;;
12687;SDS011;6408;59.388;17.798;2023-07-22T03:44:29;4.00;;;0.95;;
12687;SDS011;6408;59.388;17.798;2023-07-22T03:46:56;1.75;;;0.90;;
12687;SDS011;6408;59.388;17.798;2023-07-22T03:49:24;2.47;;;0.98;;
12687;SDS011;6408;59.388;17.798;2023-07-22T03:51:52;3.60;;;1.00;;
12687;SDS011;6408;59.388;17.798;2023-07-22T03:54:19;3.28;;;0.93;;
12687;SDS011;6408;59.388;17.798;2023-07-22T03:56:46;4.13;;;1.00;;
12687;SDS011;6408;59.388;17.798;2023-07-22T03:59:16;6.32;;;1.08;;
12687;SDS011;6408;59.388;17.798;2023-07-22T04:01:43;2.70;;;1.00;;
12687;SDS011;6408;59.388;17.798;2023-07-22T04:04:12;4.55;;;1.10;;
12687;SDS011;6408;59.388;17.798;2023-07-22T04:06:39;2.00;;;1.00;;
12687;SDS011;6408;59.388;17.798;2023-07-22T04:09:05;2.15;;;0.90;;
12687;SDS011;6408;59.388;17.798;2023-07-22T04:11:33;2.92;;;1.20;;
12687;SDS011;6408;59.388;17.798;2023-07-22T04:14:00;2.08;;;0.80;;
12687;SDS011;6408;59.388;17.798;2023-07-22T04:16:29;2.40;;;0.90;;
12687;SDS011;6408;59.388;17.798;2023-07-22T04:18:57;2.50;;;1.10;;
12687;SDS011;6408;59.388;17.798;2023-07-22T04:21:24;1.67;;;0.95;;
12687;SDS011;6408;59.388;17.798;2023-07-22T04:23:52;2.92;;;0.82;;
12687;SDS011;6408;59.388;17.798;2023-07-22T04:26:19;3.78;;;1.00;;
12687;SDS011;6408;59.388;17.798;2023-07-22T04:28:47;1.55;;;0.90;;
12687;SDS011;6408;59.388;17.798;2023-07-22T04:31:14;3.63;;;1.08;;
12687;SDS011;6408;59.388;17.798;2023-07-22T04:33:43;4.00;;;1.23;;
12687;SDS011;6408;59.388;17.798;2023-07-22T04:36:11;1.88;;;0.98;;
12687;SDS011;6408;59.388;17.798;2023-07-22T04:38:38;2.65;;;1.10;;
12687;SDS011;6408;59.388;17.798;2023-07-22T04:41:06;3.03;;;1.08;;
12687;SDS011;6408;59.388;17.798;2023-07-22T04:43:33;3.17;;;1.05;;
12687;SDS011;6408;59.388;17.798;2023-07-22T04:46:00;2.70;;;0.90;;
12687;SDS011;6408;59.388;17.798;2023-07-22T04:48:29;3.20;;;1.17;;
12687;SDS011;6408;59.388;17.798;2023-07-22T04:50:58;2.95;;;1.27;;
12687;SDS011;6408;59.388;17.798;2023-07-22T04:53:25;3.75;;;1.10;;
12687;SDS011;6408;59.388;17.798;2023-07-22T04:55:52;1.83;;;1.10;;
12687;SDS011;6408;59.388;17.798;2023-07-22T04:58:21;3.13;;;1.17;;
12687;SDS011;6408;59.388;17.798;2023-07-22T05:00:49;5.82;;;1.40;;
12687;SDS011;6408;59.388;17.798;2023-07-22T05:03:17;1.90;;;0.95;;
12687;SDS011;6408;59.388;17.798;2023-07-22T05:05:44;3.40;;;0.80;;
12687;SDS011;6408;59.388;17.798;2023-07-22T05:08:13;4.55;;;1.00;;
12687;SDS011;6408;59.388;17.798;2023-07-22T05:10:41;2.55;;;0.93;;
12687;SDS011;6408;59.388;17.798;2023-07-22T05:13:08;3.97;;;1.00;;
12687;SDS011;6408;59.388;17.798;2023-07-22T05:15:35;2.42;;;0.93;;
12687;SDS011;6408;59.388;17.798;2023-07-22T05:18:03;4.35;;;0.90;;
12687;SDS011;6408;59.388;17.798;2023-07-22T05:20:30;3.90;;;1.00;;
12687;SDS011;6408;59.388;17.798;2023-07-22T05:22:57;2.50;;;0.90;;
12687;SDS011;6408;59.388;17.798;2023-07-22T05:25:26;3.97;;;1.00;;
12687;SDS011;6408;59.388;17.798;2023-07-22T05:27:54;2.85;;;0.95;;
12687;SDS011;6408;59.388;17.798;2023-07-22T05:30:21;2.45;;;1.15;;
12687;SDS011;6408;59.388;17.798;2023-07-22T05:32:51;2.28;;;0.85;;
12687;SDS011;6408;59.388;17.798;2023-07-22T05:35:18;4.05;;;1.38;;
12687;SDS011;6408;59.388;17.798;2023-07-22T05:37:45;4.60;;;1.10;;
12687;SDS011;6408;59.388;17.798;2023-07-22T05:40:13;3.80;;;1.15;;
12687;SDS011;6408;59.388;17.798;2023-07-22T05:42:42;1.95;;;0.90;;
12687;SDS011;6408;59.388;17.798;2023-07-22T05:45:09;4.25;;;1.27;;
12687;SDS011;6408;59.388;17.798;2023-07-22T05:47:40;2.33;;;1.25;;
12687;SDS011;6408;59.388;17.798;2023-07-22T05:50:08;2.92;;;1.13;;
12687;SDS011;6408;59.388;17.798;2023-07-22T05:52:35;5.13;;;1.50;;
12687;SDS011;6408;59.388;17.798;2023-07-22T05:55:03;2.50;;;1.02;;
12687;SDS011;6408;59.388;17.798;2023-07-22T05:57:31;2.75;;;1.00;;
12687;SDS011;6408;59.388;17.798;2023-07-22T06:00:00;2.35;;;1.00;;
12687;SDS011;6408;59.388;17.798;2023-07-22T06:02:28;2.85;;;1.00;;
12687;SDS011;6408;59.388;17.798;2023-07-22T06:04:55;2.00;;;1.10;;
12687;SDS011;6408;59.388;17.798;2023-07-22T06:07:23;2.10;;;1.00;;
12687;SDS011;6408;59.388;17.798;2023-07-22T06:09:50;4.18;;;1.23;;
12687;SDS011;6408;59.388;17.798;2023-07-22T06:12:18;3.25;;;1.20;;
12687;SDS011;6408;59.388;17.798;2023-07-22T06:14:45;2.88;;;1.35;;
12687;SDS011;6408;59.388;17.798;2023-07-22T06:17:14;3.13;;;0.90;;
12687;SDS011;6408;59.388;17.798;2023-07-22T06:19:42;3.15;;;1.10;;
12687;SDS011;6408;59.388;17.798;2023-07-22T06:22:09;3.78;;;1.10;;
12687;SDS011;6408;59.388;17.798;2023-07-22T06:24:36;5.63;;;1.00;;
12687;SDS011;6408;59.388;17.798;2023-07-22T06:27:03;2.40;;;0.98;;
12687;SDS011;6408;59.388;17.798;2023-07-22T06:29:30;2.00;;;0.98;;
12687;SDS011;6408;59.388;17.798;2023-07-22T06:31:58;2.55;;;1.00;;
12687;SDS011;6408;59.388;17.798;2023-07-22T06:34:27;4.18;;;1.40;;
12687;SDS011;6408;59.388;17.798;2023-07-22T06:36:54;6.90;;;1.30;;
12687;SDS011;6408;59.388;17.798;2023-07-22T06:39:22;2.38;;;1.02;;
12687;SDS011;6408;59.388;17.798;2023-07-22T06:41:49;3.38;;;1.40;;
12687;SDS011;6408;59.388;17.798;2023-07-22T06:44:16;2.28;;;1.23;;
12687;SDS011;6408;59.388;17.798;2023-07-22T06:46:43;5.97;;;1.27;;
12687;SDS011;6408;59.388;17.798;2023-07-22T06:49:11;4.07;;;1.58;;
12687;SDS011;6408;59.388;17.798;2023-07-22T06:51:40;1.92;;;1.00;;
12687;SDS011;6408;59.388;17.798;2023-07-22T06:54:07;2.70;;;1.30;;
12687;SDS011;6408;59.388;17.798;2023-07-22T06:56:34;2.22;;;0.93;;
12687;SDS011;6408;59.388;17.798;2023-07-22T06:59:02;2.20;;;1.13;;
12687;SDS011;6408;59.388;17.798;2023-07-22T07:01:29;2.55;;;1.13;;
12687;SDS011;6408;59.388;17.798;2023-07-22T07:03:56;2.88;;;1.10;;
12687;SDS011;6408;59.388;17.798;2023-07-22T07:06:24;3.47;;;1.00;;
12687;SDS011;6408;59.388;17.798;2023-07-22T07:08:53;2.33;;;1.13;;
12687;SDS011;6408;59.388;17.798;2023-07-22T07:11:20;3.28;;;1.10;;
12687;SDS011;6408;59.388;17.798;2023-07-22T07:13:48;2.78;;;1.00;;
12687;SDS011;6408;59.388;17.798;2023-07-22T07:16:22;3.17;;;1.30;;
12687;SDS011;6408;59.388;17.798;2023-07-22T07:18:52;2.65;;;1.35;;
12687;SDS011;6408;59.388;17.798;2023-07-22T07:21:20;3.05;;;1.00;;
12687;SDS011;6408;59.388;17.798;2023-07-22T07:23:48;1.92;;;0.95;;
12687;SDS011;6408;59.388;17.798;2023-07-22T07:26:18;2.40;;;1.17;;
12687;SDS011;6408;59.388;17.798;2023-07-22T07:28:46;3.65;;;1.23;;
12687;SDS011;6408;59.388;17.798;2023-07-22T07:31:15;3.00;;;1.10;;
12687;SDS011;6408;59.388;17.798;2023-07-22T07:33:42;2.15;;;1.05;;
12687;SDS011;6408;59.388;17.798;2023-07-22T07:36:09;3.10;;;1.27;;
12687;SDS011;6408;59.388;17.798;2023-07-22T07:38:37;1.80;;;1.10;;
12687;SDS011;6408;59.388;17.798;2023-07-22T07:41:05;2.60;;;1.10;;
12687;SDS011;6408;59.388;17.798;2023-07-22T07:43:38;2.40;;;1.05;;
12687;SDS011;6408;59.388;17.798;2023-07-22T07:46:12;2.72;;;0.95;;
12687;SDS011;6408;59.388;17.798;2023-07-22T07:48:46;2.80;;;1.10;;
12687;SDS011;6408;59.388;17.798;2023-07-22T07:51:15;1.92;;;0.80;;
12687;SDS011;6408;59.388;17.798;2023-07-22T07:53:44;1.90;;;1.00;;
12687;SDS011;6408;59.388;17.798;2023-07-22T07:56:12;1.05;;;0.85;;
12687;SDS011;6408;59.388;17.798;2023-07-22T07:58:42;1.75;;;0.88;;
12687;SDS011;6408;59.388;17.798;2023-07-22T08:01:10;1.08;;;0.98;;
12687;SDS011;6408;59.388;17.798;2023-07-22T08:03:38;4.93;;;1.02;;
12687;SDS011;6408;59.388;17.798;2023-07-22T08:06:06;1.55;;;0.88;;
12687;SDS011;6408;59.388;17.798;2023-07-22T08:08:34;1.73;;;0.95;;
12687;SDS011;6408;59.388;17.798;2023-07-22T08:11:03;3.72;;;1.13;;
12687;SDS011;6408;59.388;17.798;2023-07-22T08:13:34;1.63;;;1.00;;
12687;SDS011;6408;59.388;17.798;2023-07-22T08:16:03;2.28;;;1.10;;
12687;SDS011;6408;59.388;17.798;2023-07-22T08:18:34;2.78;;;0.90;;
12687;SDS011;6408;59.388;17.798;2023-07-22T08:21:02;2.20;;;0.80;;
12687;SDS011;6408;59.388;17.798;2023-07-22T08:23:31;1.40;;;0.90;;
12687;SDS011;6408;59.388;17.798;2023-07-22T08:25:59;2.00;;;1.02;;
12687;SDS011;6408;59.388;17.798;2023-07-22T08:28:26;3.08;;;0.90;;
12687;SDS011;6408;59.388;17.798;2023-07-22T08:30:54;1.67;;;1.00;;
12687;SDS011;6408;59.388;17.798;2023-07-22T08:33:23;2.45;;;1.00;;
12687;SDS011;6408;59.388;17.798;2023-07-22T08:35:51;2.25;;;0.95;;
12687;SDS011;6408;59.388;17.798;2023-07-22T08:38:20;2.00;;;1.10;;
12687;SDS011;6408;59.388;17.798;2023-07-22T08:40:48;1.52;;;1.10;;
12687;SDS011;6408;59.388;17.798;2023-07-22T08:43:19;1.20;;;0.80;;
12687;SDS011;6408;59.388;17.798;2023-07-22T08:45:48;2.38;;;1.08;;
12687;SDS011;6408;59.388;17.798;2023-07-22T08:48:18;1.45;;;1.00;;
12687;SDS011;6408;59.388;17.798;2023-07-22T08:50:52;1.65;;;1.02;;
12687;SDS011;6408;59.388;17.798;2023-07-22T08:53:21;1.35;;;1.10;;
12687;SDS011;6408;59.388;17.798;2023-07-22T08:55:50;2.22;;;1.00;;
12687;SDS011;6408;59.388;17.798;2023-07-22T08:58:18;1.83;;;0.80;;
12687;SDS011;6408;59.388;17.798;2023-07-22T09:00:47;3.67;;;1.10;;
12687;SDS011;6408;59.388;17.798;2023-07-22T09:03:15;1.70;;;1.02;;
12687;SDS011;6408;59.388;17.798;2023-07-22T09:05:43;2.55;;;1.10;;
12687;SDS011;6408;59.388;17.798;2023-07-22T09:08:13;2.40;;;0.98;;
12687;SDS011;6408;59.388;17.798;2023-07-22T09:10:42;2.47;;;0.93;;
12687;SDS011;6408;59.388;17.798;2023-07-22T09:13:11;1.77;;;1.00;;
12687;SDS011;6408;59.388;17.798;2023-07-22T09:15:40;1.85;;;1.00;;
12687;SDS011;6408;59.388;17.798;2023-07-22T09:18:08;2.15;;;0.77;;
12687;SDS011;6408;59.388;17.798;2023-07-22T09:20:35;2.03;;;1.10;;
12687;SDS011;6408;59.388;17.798;2023-07-22T09:23:03;2.00;;;0.82;;
12687;SDS011;6408;59.388;17.798;2023-07-22T09:25:33;1.10;;;0.90;;
12687;SDS011;6408;59.388;17.798;2023-07-22T09:28:01;1.13;;;0.85;;
12687;SDS011;6408;59.388;17.798;2023-07-22T09:30:29;0.95;;;0.95;;
12687;SDS011;6408;59.388;17.798;2023-07-22T09:32:58;1.30;;;0.95;;
12687;SDS011;6408;59.388;17.798;2023-07-22T09:35:28;2.35;;;0.80;;
12687;SDS011;6408;59.388;17.798;2023-07-22T09:37:58;0.80;;;0.80;;
12687;SDS011;6408;59.388;17.798;2023-07-22T09:40:26;1.63;;;0.85;;
12687;SDS011;6408;59.388;17.798;2023-07-22T09:42:56;1.35;;;0.90;;
12687;SDS011;6408;59.388;17.798;2023-07-22T09:45:27;2.15;;;1.27;;
12687;SDS011;6408;59.388;17.798;2023-07-22T09:47:56;1.17;;;0.80;;
12687;SDS011;6408;59.388;17.798;2023-07-22T09:50:25;1.58;;;0.98;;
12687;SDS011;6408;59.388;17.798;2023-07-22T09:52:53;0.77;;;0.63;;
12687;SDS011;6408;59.388;17.798;2023-07-22T09:55:23;2.75;;;1.02;;
12687;SDS011;6408;59.388;17.798;2023-07-22T09:57:54;1.40;;;1.00;;
12687;SDS011;6408;59.388;17.798;2023-07-22T10:00:27;1.75;;;0.88;;
12687;SDS011;6408;59.388;17.798;2023-07-22T10:02:56;2.50;;;0.90;;
12687;SDS011;6408;59.388;17.798;2023-07-22T10:05:25;1.70;;;0.90;;
12687;SDS011;6408;59.388;17.798;2023-07-22T10:07:54;2.25;;;1.00;;
12687;SDS011;6408;59.388;17.798;2023-07-22T10:10:23;1.73;;;0.77;;
12687;SDS011;6408;59.388;17.798;2023-07-22T10:12:53;2.00;;;1.17;;
12687;SDS011;6408;59.388;17.798;2023-07-22T10:15:24;2.30;;;0.85;;
12687;SDS011;6408;59.388;17.798;2023-07-22T10:17:52;2.03;;;1.00;;
12687;SDS011;6408;59.388;17.798;2023-07-22T10:20:22;0.95;;;0.90;;
12687;SDS011;6408;59.388;17.798;2023-07-22T10:22:50;1.25;;;1.00;;
12687;SDS011;6408;59.388;17.798;2023-07-22T10:25:19;1.52;;;1.10;;
12687;SDS011;6408;59.388;17.798;2023-07-22T10:27:47;1.73;;;1.10;;
12687;SDS011;6408;59.388;17.798;2023-07-22T10:30:16;1.27;;;1.00;;
12687;SDS011;6408;59.388;17.798;2023-07-22T10:32:46;1.42;;;1.17;;
12687;SDS011;6408;59.388;17.798;2023-07-22T10:35:16;1.48;;;1.00;;
12687;SDS011;6408;59.388;17.798;2023-07-22T10:37:49;3.50;;;1.20;;
12687;SDS011;6408;59.388;17.798;2023-07-22T10:40:19;2.17;;;1.15;;
12687;SDS011;6408;59.388;17.798;2023-07-22T10:42:53;1.40;;;1.05;;
12687;SDS011;6408;59.388;17.798;2023-07-22T10:45:26;1.63;;;1.10;;
12687;SDS011;6408;59.388;17.798;2023-07-22T10:48:03;1.77;;;1.17;;
12687;SDS011;6408;59.388;17.798;2023-07-22T10:50:43;2.05;;;1.15;;
12687;SDS011;6408;59.388;17.798;2023-07-22T10:53:13;3.03;;;1.17;;
12687;SDS011;6408;59.388;17.798;2023-07-22T10:56:02;1.63;;;1.30;;
12687;SDS011;6408;59.388;17.798;2023-07-22T10:58:35;1.70;;;1.02;;
12687;SDS011;6408;59.388;17.798;2023-07-22T11:01:38;2.35;;;1.23;;
12687;SDS011;6408;59.388;17.798;2023-07-22T11:07:03;1.80;;;1.30;;
12687;SDS011;6408;59.388;17.798;2023-07-22T11:09:35;1.85;;;1.38;;
12687;SDS011;6408;59.388;17.798;2023-07-22T11:12:03;2.03;;;1.30;;
12687;SDS011;6408;59.388;17.798;2023-07-22T11:14:33;4.00;;;1.30;;
12687;SDS011;6408;59.388;17.798;2023-07-22T11:17:01;2.60;;;1.40;;
12687;SDS011;6408;59.388;17.798;2023-07-22T11:19:31;2.85;;;1.23;;
12687;SDS011;6408;59.388;17.798;2023-07-22T11:21:59;2.53;;;1.40;;
12687;SDS011;6408;59.388;17.798;2023-07-22T11:24:28;2.80;;;1.40;;
12687;SDS011;6408;59.388;17.798;2023-07-22T11:26:56;2.38;;;1.40;;
12687;SDS011;6408;59.388;17.798;2023-07-22T11:29:23;1.52;;;1.40;;
12687;SDS011;6408;59.388;17.798;2023-07-22T11:31:50;2.47;;;1.70;;
12687;SDS011;6408;59.388;17.798;2023-07-22T11:34:18;2.80;;;1.45;;
12687;SDS011;6408;59.388;17.798;2023-07-22T11:36:47;2.83;;;1.63;;
12687;SDS011;6408;59.388;17.798;2023-07-22T11:39:16;3.50;;;1.60;;
12687;SDS011;6408;59.388;17.798;2023-07-22T11:41:46;3.95;;;1.70;;
12687;SDS011;6408;59.388;17.798;2023-07-22T11:44:14;2.38;;;1.65;;
12687;SDS011;6408;59.388;17.798;2023-07-22T11:46:46;1.80;;;1.70;;
12687;SDS011;6408;59.388;17.798;2023-07-22T11:49:22;3.67;;;1.70;;
12687;SDS011;6408;59.388;17.798;2023-07-22T11:51:51;1.73;;;1.55;;
12687;SDS011;6408;59.388;17.798;2023-07-22T11:54:20;1.92;;;1.52;;
12687;SDS011;6408;59.388;17.798;2023-07-22T11:56:50;1.65;;;1.55;;
12687;SDS011;6408;59.388;17.798;2023-07-22T11:59:17;2.22;;;1.70;;
12687;SDS011;6408;59.388;17.798;2023-07-22T12:01:59;4.07;;;1.70;;
12687;SDS011;6408;59.388;17.798;2023-07-22T12:04:27;3.88;;;2.00;;
12687;SDS011;6408;59.388;17.798;2023-07-22T12:06:54;2.70;;;1.60;;
12687;SDS011;6408;59.388;17.798;2023-07-22T12:09:22;2.95;;;1.70;;
12687;SDS011;6408;59.388;17.798;2023-07-22T12:11:56;1.60;;;1.50;;
12687;SDS011;6408;59.388;17.798;2023-07-22T12:14:33;2.17;;;1.42;;
12687;SDS011;6408;59.388;17.798;2023-07-22T12:17:01;1.50;;;1.40;;
12687;SDS011;6408;59.388;17.798;2023-07-22T12:19:29;2.47;;;1.88;;
12687;SDS011;6408;59.388;17.798;2023-07-22T12:21:56;3.40;;;1.92;;
12687;SDS011;6408;59.388;17.798;2023-07-22T12:24:24;2.75;;;1.85;;
12687;SDS011;6408;59.388;17.798;2023-07-22T12:26:51;1.75;;;1.48;;
12687;SDS011;6408;59.388;17.798;2023-07-22T12:29:20;2.50;;;1.70;;
12687;SDS011;6408;59.388;17.798;2023-07-22T12:31:48;2.85;;;1.73;;
12687;SDS011;6408;59.388;17.798;2023-07-22T12:34:16;1.95;;;1.80;;
12687;SDS011;6408;59.388;17.798;2023-07-22T12:36:44;3.15;;;1.90;;
12687;SDS011;6408;59.388;17.798;2023-07-22T12:39:11;2.20;;;1.80;;
12687;SDS011;6408;59.388;17.798;2023-07-22T12:41:38;2.22;;;1.60;;
12687;SDS011;6408;59.388;17.798;2023-07-22T12:44:05;1.98;;;1.77;;
12687;SDS011;6408;59.388;17.798;2023-07-22T12:46:35;2.85;;;1.80;;
12687;SDS011;6408;59.388;17.798;2023-07-22T12:49:02;2.17;;;1.98;;
12687;SDS011;6408;59.388;17.798;2023-07-22T12:51:30;2.72;;;1.90;;
12687;SDS011;6408;59.388;17.798;2023-07-22T12:53:58;2.58;;;1.70;;
12687;SDS011;6408;59.388;17.798;2023-07-22T12:56:25;2.45;;;1.92;;
12687;SDS011;6408;59.388;17.798;2023-07-22T12:58:53;3.00;;;2.00;;
12687;SDS011;6408;59.388;17.798;2023-07-22T13:01:20;2.95;;;1.83;;
12687;SDS011;6408;59.388;17.798;2023-07-22T13:03:49;2.92;;;1.92;;
12687;SDS011;6408;59.388;17.798;2023-07-22T13:06:17;2.28;;;2.00;;
12687;SDS011;6408;59.388;17.798;2023-07-22T13:08:44;2.17;;;2.00;;
12687;SDS011;6408;59.388;17.798;2023-07-22T13:11:11;2.17;;;1.98;;
12687;SDS011;6408;59.388;17.798;2023-07-22T13:13:39;2.60;;;1.95;;
12687;SDS011;6408;59.388;17.798;2023-07-22T13:16:06;2.90;;;1.70;;
12687;SDS011;6408;59.388;17.798;2023-07-22T13:18:34;3.53;;;2.10;;
12687;SDS011;6408;59.388;17.798;2023-07-22T13:21:03;1.92;;;1.83;;
12687;SDS011;6408;59.388;17.798;2023-07-22T13:23:30;2.13;;;1.85;;
12687;SDS011;6408;59.388;17.798;2023-07-22T13:25:58;2.72;;;2.13;;
12687;SDS011;6408;59.388;17.798;2023-07-22T13:28:25;3.83;;;2.00;;
12687;SDS011;6408;59.388;17.798;2023-07-22T13:30:52;3.15;;;2.03;;
12687;SDS011;6408;59.388;17.798;2023-07-22T13:33:20;2.47;;;1.77;;
12687;SDS011;6408;59.388;17.798;2023-07-22T13:35:47;2.10;;;1.90;;
12687;SDS011;6408;59.388;17.798;2023-07-22T13:38:17;2.42;;;1.80;;
12687;SDS011;6408;59.388;17.798;2023-07-22T13:40:46;3.63;;;1.80;;
12687;SDS011;6408;59.388;17.798;2023-07-22T13:43:13;3.17;;;1.90;;
12687;SDS011;6408;59.388;17.798;2023-07-22T13:45:40;3.17;;;2.00;;
12687;SDS011;6408;59.388;17.798;2023-07-22T13:48:08;2.40;;;2.20;;
12687;SDS011;6408;59.388;17.798;2023-07-22T13:50:36;2.47;;;1.98;;
12687;SDS011;6408;59.388;17.798;2023-07-22T13:53:05;2.70;;;2.20;;
12687;SDS011;6408;59.388;17.798;2023-07-22T13:55:34;3.33;;;2.20;;
12687;SDS011;6408;59.388;17.798;2023-07-22T13:58:01;4.25;;;2.05;;
12687;SDS011;6408;59.388;17.798;2023-07-22T14:00:28;3.80;;;2.00;;
12687;SDS011;6408;59.388;17.798;2023-07-22T14:02:56;11.05;;;2.20;;
12687;SDS011;6408;59.388;17.798;2023-07-22T14:05:24;2.83;;;2.13;;
12687;SDS011;6408;59.388;17.798;2023-07-22T14:07:51;2.47;;;1.90;;
12687;SDS011;6408;59.388;17.798;2023-07-22T14:10:18;3.05;;;2.15;;
12687;SDS011;6408;59.388;17.798;2023-07-22T14:12:48;4.15;;;2.20;;
12687;SDS011;6408;59.388;17.798;2023-07-22T14:15:15;3.63;;;2.15;;
12687;SDS011;6408;59.388;17.798;2023-07-22T14:17:42;3.28;;;2.10;;
12687;SDS011;6408;59.388;17.798;2023-07-22T14:20:10;3.95;;;2.25;;
12687;SDS011;6408;59.388;17.798;2023-07-22T14:22:39;3.45;;;2.30;;
12687;SDS011;6408;59.388;17.798;2023-07-22T14:25:07;3.00;;;2.20;;
12687;SDS011;6408;59.388;17.798;2023-07-22T14:27:35;4.63;;;2.20;;
12687;SDS011;6408;59.388;17.798;2023-07-22T14:30:07;4.60;;;2.33;;
12687;SDS011;6408;59.388;17.798;2023-07-22T14:32:35;2.75;;;2.10;;
12687;SDS011;6408;59.388;17.798;2023-07-22T14:35:03;2.38;;;1.92;;
12687;SDS011;6408;59.388;17.798;2023-07-22T14:37:31;2.17;;;2.00;;
12687;SDS011;6408;59.388;17.798;2023-07-22T14:39:58;2.42;;;1.90;;
12687;SDS011;6408;59.388;17.798;2023-07-22T14:42:26;2.30;;;1.85;;
12687;SDS011;6408;59.388;17.798;2023-07-22T14:44:53;1.70;;;1.60;;
12687;SDS011;6408;59.388;17.798;2023-07-22T14:47:22;3.97;;;1.80;;
12687;SDS011;6408;59.388;17.798;2023-07-22T14:49:51;1.40;;;1.30;;
12687;SDS011;6408;59.388;17.798;2023-07-22T14:52:18;3.00;;;1.70;;
12687;SDS011;6408;59.388;17.798;2023-07-22T14:54:46;1.85;;;1.75;;
12687;SDS011;6408;59.388;17.798;2023-07-22T14:57:14;2.67;;;1.60;;
12687;SDS011;6408;59.388;17.798;2023-07-22T14:59:41;1.70;;;1.40;;